sensor_id;sensor_type;location;lat;lon;timestamp;P1;durP1;ratioP1;P2;durP2;ratioP2
54193;SDS011;40102;50.906;6.972;2024-03-07T00:00:11;25.75;;;13.77;;
54193;SDS011;40102;50.906;6.972;2024-03-07T00:02:47;24.45;;;13.25;;
54193;SDS011;40102;50.906;6.972;2024-03-07T00:05:19;28.50;;;13.70;;
54193;SDS011;40102;50.906;6.972;2024-03-07T00:07:46;25.55;;;14.02;;
54193;SDS011;40102;50.906;6.972;2024-03-07T00:10:12;28.23;;;14.50;;
54193;SDS011;40102;50.906;6.972;2024-03-07T00:12:38;24.17;;;13.00;;
54193;SDS011;40102;50.906;6.972;2024-03-07T00:15:06;24.23;;;13.57;;
54193;SDS011;40102;50.906;6.972;2024-03-07T00:17:32;26.30;;;13.52;;
54193;SDS011;40102;50.906;6.972;2024-03-07T00:19:57;24.35;;;13.75;;
54193;SDS011;40102;50.906;6.972;2024-03-07T00:22:23;27.52;;;13.15;;
54193;SDS011;40102;50.906;6.972;2024-03-07T00:24:51;24.60;;;13.05;;
54193;SDS011;40102;50.906;6.972;2024-03-07T00:27:17;25.88;;;13.98;;
54193;SDS011;40102;50.906;6.972;2024-03-07T00:29:42;25.80;;;13.32;;
54193;SDS011;40102;50.906;6.972;2024-03-07T00:32:08;26.48;;;13.73;;
54193;SDS011;40102;50.906;6.972;2024-03-07T00:34:33;27.40;;;14.65;;
54193;SDS011;40102;50.906;6.972;2024-03-07T00:36:59;28.95;;;14.73;;
54193;SDS011;40102;50.906;6.972;2024-03-07T00:39:25;26.98;;;14.18;;
54193;SDS011;40102;50.906;6.972;2024-03-07T00:41:51;25.65;;;13.88;;
54193;SDS011;40102;50.906;6.972;2024-03-07T00:44:17;26.67;;;13.50;;
54193;SDS011;40102;50.906;6.972;2024-03-07T00:46:42;24.10;;;14.05;;
54193;SDS011;40102;50.906;6.972;2024-03-07T00:49:07;25.67;;;13.50;;
54193;SDS011;40102;50.906;6.972;2024-03-07T00:51:33;28.48;;;14.10;;
54193;SDS011;40102;50.906;6.972;2024-03-07T00:53:58;29.48;;;14.05;;
54193;SDS011;40102;50.906;6.972;2024-03-07T00:56:24;28.05;;;13.80;;
54193;SDS011;40102;50.906;6.972;2024-03-07T00:58:50;23.90;;;13.05;;
54193;SDS011;40102;50.906;6.972;2024-03-07T01:01:15;27.25;;;13.50;;
54193;SDS011;40102;50.906;6.972;2024-03-07T01:03:42;25.45;;;13.10;;
54193;SDS011;40102;50.906;6.972;2024-03-07T01:06:13;25.02;;;12.75;;
54193;SDS011;40102;50.906;6.972;2024-03-07T01:08:39;28.00;;;13.40;;
54193;SDS011;40102;50.906;6.972;2024-03-07T01:11:05;28.48;;;13.02;;
54193;SDS011;40102;50.906;6.972;2024-03-07T01:13:43;24.75;;;13.23;;
54193;SDS011;40102;50.906;6.972;2024-03-07T01:16:09;27.00;;;13.63;;
54193;SDS011;40102;50.906;6.972;2024-03-07T01:18:34;29.92;;;14.05;;
54193;SDS011;40102;50.906;6.972;2024-03-07T01:21:03;24.73;;;12.95;;
54193;SDS011;40102;50.906;6.972;2024-03-07T01:23:30;26.17;;;14.18;;
54193;SDS011;40102;50.906;6.972;2024-03-07T01:25:56;26.83;;;13.32;;
54193;SDS011;40102;50.906;6.972;2024-03-07T01:28:22;25.13;;;13.25;;
54193;SDS011;40102;50.906;6.972;2024-03-07T01:30:49;23.63;;;12.63;;
54193;SDS011;40102;50.906;6.972;2024-03-07T01:33:15;27.80;;;12.85;;
54193;SDS011;40102;50.906;6.972;2024-03-07T01:35:41;25.35;;;13.57;;
54193;SDS011;40102;50.906;6.972;2024-03-07T01:38:06;27.40;;;14.10;;
54193;SDS011;40102;50.906;6.972;2024-03-07T01:40:33;26.55;;;12.80;;
54193;SDS011;40102;50.906;6.972;2024-03-07T01:43:02;28.88;;;13.98;;
54193;SDS011;40102;50.906;6.972;2024-03-07T01:45:28;27.15;;;13.90;;
54193;SDS011;40102;50.906;6.972;2024-03-07T01:47:53;28.02;;;13.70;;
54193;SDS011;40102;50.906;6.972;2024-03-07T01:50:20;28.60;;;13.63;;
54193;SDS011;40102;50.906;6.972;2024-03-07T01:52:46;27.27;;;13.50;;
54193;SDS011;40102;50.906;6.972;2024-03-07T01:55:15;25.25;;;12.43;;
54193;SDS011;40102;50.906;6.972;2024-03-07T01:57:41;24.60;;;12.73;;
54193;SDS011;40102;50.906;6.972;2024-03-07T02:00:07;25.63;;;12.80;;
54193;SDS011;40102;50.906;6.972;2024-03-07T02:02:34;24.95;;;13.15;;
54193;SDS011;40102;50.906;6.972;2024-03-07T02:04:59;25.65;;;13.05;;
54193;SDS011;40102;50.906;6.972;2024-03-07T02:07:25;24.10;;;13.00;;
54193;SDS011;40102;50.906;6.972;2024-03-07T02:09:58;24.63;;;12.32;;
54193;SDS011;40102;50.906;6.972;2024-03-07T02:12:28;26.00;;;12.02;;
54193;SDS011;40102;50.906;6.972;2024-03-07T02:14:54;23.85;;;12.82;;
54193;SDS011;40102;50.906;6.972;2024-03-07T02:17:21;22.65;;;12.40;;
54193;SDS011;40102;50.906;6.972;2024-03-07T02:19:46;24.85;;;12.60;;
54193;SDS011;40102;50.906;6.972;2024-03-07T02:22:12;26.50;;;12.00;;
54193;SDS011;40102;50.906;6.972;2024-03-07T02:24:38;24.27;;;12.40;;
54193;SDS011;40102;50.906;6.972;2024-03-07T02:27:03;24.48;;;11.77;;
54193;SDS011;40102;50.906;6.972;2024-03-07T02:29:29;23.17;;;11.50;;
54193;SDS011;40102;50.906;6.972;2024-03-07T02:31:55;23.35;;;12.02;;
54193;SDS011;40102;50.906;6.972;2024-03-07T02:34:21;22.30;;;11.55;;
54193;SDS011;40102;50.906;6.972;2024-03-07T02:36:47;22.85;;;11.65;;
54193;SDS011;40102;50.906;6.972;2024-03-07T02:39:12;26.50;;;11.75;;
54193;SDS011;40102;50.906;6.972;2024-03-07T02:41:38;23.23;;;11.82;;
54193;SDS011;40102;50.906;6.972;2024-03-07T02:44:03;25.50;;;12.27;;
54193;SDS011;40102;50.906;6.972;2024-03-07T02:46:29;23.70;;;12.32;;
54193;SDS011;40102;50.906;6.972;2024-03-07T02:48:54;22.25;;;10.75;;
54193;SDS011;40102;50.906;6.972;2024-03-07T02:51:19;23.38;;;12.43;;
54193;SDS011;40102;50.906;6.972;2024-03-07T02:53:45;24.95;;;11.65;;
54193;SDS011;40102;50.906;6.972;2024-03-07T02:56:10;24.05;;;11.38;;
54193;SDS011;40102;50.906;6.972;2024-03-07T02:58:36;23.08;;;11.68;;
54193;SDS011;40102;50.906;6.972;2024-03-07T03:01:01;23.63;;;11.77;;
54193;SDS011;40102;50.906;6.972;2024-03-07T03:03:28;22.77;;;12.07;;
54193;SDS011;40102;50.906;6.972;2024-03-07T03:06:01;25.33;;;12.55;;
54193;SDS011;40102;50.906;6.972;2024-03-07T03:08:26;25.15;;;11.90;;
54193;SDS011;40102;50.906;6.972;2024-03-07T03:10:55;24.42;;;12.45;;
54193;SDS011;40102;50.906;6.972;2024-03-07T03:13:21;26.67;;;12.35;;
54193;SDS011;40102;50.906;6.972;2024-03-07T03:15:48;20.85;;;11.20;;
54193;SDS011;40102;50.906;6.972;2024-03-07T03:18:14;25.10;;;11.73;;
54193;SDS011;40102;50.906;6.972;2024-03-07T03:20:39;23.98;;;10.98;;
54193;SDS011;40102;50.906;6.972;2024-03-07T03:23:05;26.70;;;12.07;;
54193;SDS011;40102;50.906;6.972;2024-03-07T03:25:31;24.65;;;11.90;;
54193;SDS011;40102;50.906;6.972;2024-03-07T03:28:00;22.55;;;11.63;;
54193;SDS011;40102;50.906;6.972;2024-03-07T03:30:26;23.80;;;11.88;;
54193;SDS011;40102;50.906;6.972;2024-03-07T03:32:51;24.48;;;11.82;;
54193;SDS011;40102;50.906;6.972;2024-03-07T03:35:17;20.25;;;10.70;;
54193;SDS011;40102;50.906;6.972;2024-03-07T03:37:44;23.58;;;12.00;;
54193;SDS011;40102;50.906;6.972;2024-03-07T03:40:10;21.38;;;10.77;;
54193;SDS011;40102;50.906;6.972;2024-03-07T03:42:38;24.55;;;11.45;;
54193;SDS011;40102;50.906;6.972;2024-03-07T03:45:07;23.08;;;11.50;;
54193;SDS011;40102;50.906;6.972;2024-03-07T03:47:37;27.08;;;11.48;;
54193;SDS011;40102;50.906;6.972;2024-03-07T03:50:06;24.25;;;12.02;;
54193;SDS011;40102;50.906;6.972;2024-03-07T03:52:33;28.13;;;11.98;;
54193;SDS011;40102;50.906;6.972;2024-03-07T03:55:02;20.88;;;10.50;;
54193;SDS011;40102;50.906;6.972;2024-03-07T03:57:30;22.42;;;11.02;;
54193;SDS011;40102;50.906;6.972;2024-03-07T03:59:56;21.30;;;10.95;;
54193;SDS011;40102;50.906;6.972;2024-03-07T04:02:21;18.52;;;9.68;;
54193;SDS011;40102;50.906;6.972;2024-03-07T04:04:47;23.33;;;11.18;;
54193;SDS011;40102;50.906;6.972;2024-03-07T04:07:13;23.15;;;11.63;;
54193;SDS011;40102;50.906;6.972;2024-03-07T04:09:40;24.40;;;11.40;;
54193;SDS011;40102;50.906;6.972;2024-03-07T04:12:13;24.10;;;11.30;;
54193;SDS011;40102;50.906;6.972;2024-03-07T04:14:40;22.67;;;10.30;;
54193;SDS011;40102;50.906;6.972;2024-03-07T04:17:06;21.90;;;10.75;;
54193;SDS011;40102;50.906;6.972;2024-03-07T04:19:36;23.30;;;10.82;;
54193;SDS011;40102;50.906;6.972;2024-03-07T04:22:03;20.23;;;9.80;;
54193;SDS011;40102;50.906;6.972;2024-03-07T04:24:29;20.83;;;10.65;;
54193;SDS011;40102;50.906;6.972;2024-03-07T04:26:57;22.98;;;10.77;;
54193;SDS011;40102;50.906;6.972;2024-03-07T04:29:29;20.90;;;9.80;;
54193;SDS011;40102;50.906;6.972;2024-03-07T04:31:55;23.27;;;10.88;;
54193;SDS011;40102;50.906;6.972;2024-03-07T04:34:20;22.38;;;10.77;;
54193;SDS011;40102;50.906;6.972;2024-03-07T04:36:45;19.67;;;10.52;;
54193;SDS011;40102;50.906;6.972;2024-03-07T04:39:10;21.98;;;11.05;;
54193;SDS011;40102;50.906;6.972;2024-03-07T04:41:47;22.58;;;11.20;;
54193;SDS011;40102;50.906;6.972;2024-03-07T04:44:13;22.42;;;11.43;;
54193;SDS011;40102;50.906;6.972;2024-03-07T04:46:38;21.65;;;10.15;;
54193;SDS011;40102;50.906;6.972;2024-03-07T04:49:07;22.70;;;11.40;;
54193;SDS011;40102;50.906;6.972;2024-03-07T04:51:33;23.65;;;11.23;;
54193;SDS011;40102;50.906;6.972;2024-03-07T04:53:58;22.98;;;10.75;;
54193;SDS011;40102;50.906;6.972;2024-03-07T04:56:23;19.98;;;10.60;;
54193;SDS011;40102;50.906;6.972;2024-03-07T04:58:49;19.30;;;10.63;;
54193;SDS011;40102;50.906;6.972;2024-03-07T05:01:15;23.25;;;11.07;;
54193;SDS011;40102;50.906;6.972;2024-03-07T05:03:40;22.00;;;11.43;;
54193;SDS011;40102;50.906;6.972;2024-03-07T05:06:07;25.25;;;11.82;;
54193;SDS011;40102;50.906;6.972;2024-03-07T05:08:33;24.58;;;11.98;;
54193;SDS011;40102;50.906;6.972;2024-03-07T05:10:58;21.00;;;10.38;;
54193;SDS011;40102;50.906;6.972;2024-03-07T05:13:24;21.05;;;10.55;;
54193;SDS011;40102;50.906;6.972;2024-03-07T05:15:49;22.33;;;10.73;;
54193;SDS011;40102;50.906;6.972;2024-03-07T05:18:15;21.98;;;11.25;;
54193;SDS011;40102;50.906;6.972;2024-03-07T05:20:41;22.55;;;10.75;;
54193;SDS011;40102;50.906;6.972;2024-03-07T05:23:07;25.90;;;11.55;;
54193;SDS011;40102;50.906;6.972;2024-03-07T05:25:32;21.73;;;10.88;;
54193;SDS011;40102;50.906;6.972;2024-03-07T05:28:01;20.98;;;9.80;;
54193;SDS011;40102;50.906;6.972;2024-03-07T05:30:27;21.85;;;10.45;;
54193;SDS011;40102;50.906;6.972;2024-03-07T05:32:53;20.77;;;10.43;;
54193;SDS011;40102;50.906;6.972;2024-03-07T05:35:19;21.90;;;10.85;;
54193;SDS011;40102;50.906;6.972;2024-03-07T05:37:45;18.40;;;10.27;;
54193;SDS011;40102;50.906;6.972;2024-03-07T05:40:12;20.58;;;10.05;;
54193;SDS011;40102;50.906;6.972;2024-03-07T05:42:37;21.25;;;10.43;;
54193;SDS011;40102;50.906;6.972;2024-03-07T05:45:04;22.88;;;10.77;;
54193;SDS011;40102;50.906;6.972;2024-03-07T05:47:33;24.05;;;12.63;;
54193;SDS011;40102;50.906;6.972;2024-03-07T05:49:58;25.63;;;13.20;;
54193;SDS011;40102;50.906;6.972;2024-03-07T05:52:24;22.65;;;11.40;;
54193;SDS011;40102;50.906;6.972;2024-03-07T05:54:49;25.75;;;12.00;;
54193;SDS011;40102;50.906;6.972;2024-03-07T05:57:14;22.70;;;11.35;;
54193;SDS011;40102;50.906;6.972;2024-03-07T05:59:40;25.85;;;12.65;;
54193;SDS011;40102;50.906;6.972;2024-03-07T06:02:05;23.90;;;11.93;;
54193;SDS011;40102;50.906;6.972;2024-03-07T06:04:31;23.70;;;11.52;;
54193;SDS011;40102;50.906;6.972;2024-03-07T06:06:57;24.42;;;12.30;;
54193;SDS011;40102;50.906;6.972;2024-03-07T06:09:22;24.40;;;11.13;;
54193;SDS011;40102;50.906;6.972;2024-03-07T06:11:48;21.63;;;11.07;;
54193;SDS011;40102;50.906;6.972;2024-03-07T06:14:14;22.17;;;10.88;;
54193;SDS011;40102;50.906;6.972;2024-03-07T06:16:44;23.33;;;11.23;;
54193;SDS011;40102;50.906;6.972;2024-03-07T06:19:09;22.67;;;11.50;;
54193;SDS011;40102;50.906;6.972;2024-03-07T06:21:36;22.95;;;11.50;;
54193;SDS011;40102;50.906;6.972;2024-03-07T06:24:02;21.77;;;10.60;;
54193;SDS011;40102;50.906;6.972;2024-03-07T06:26:31;22.33;;;11.50;;
54193;SDS011;40102;50.906;6.972;2024-03-07T06:29:24;14.95;;;6.65;;
54193;SDS011;40102;50.906;6.972;2024-03-07T06:31:52;23.38;;;7.95;;
54193;SDS011;40102;50.906;6.972;2024-03-07T06:34:18;29.98;;;12.35;;
54193;SDS011;40102;50.906;6.972;2024-03-07T06:36:44;20.48;;;10.13;;
54193;SDS011;40102;50.906;6.972;2024-03-07T06:39:09;17.75;;;9.23;;
54193;SDS011;40102;50.906;6.972;2024-03-07T06:41:38;17.48;;;9.32;;
54193;SDS011;40102;50.906;6.972;2024-03-07T06:44:13;20.80;;;10.70;;
54193;SDS011;40102;50.906;6.972;2024-03-07T06:46:51;23.70;;;12.27;;
54193;SDS011;40102;50.906;6.972;2024-03-07T06:49:17;23.42;;;12.73;;
54193;SDS011;40102;50.906;6.972;2024-03-07T06:51:45;22.70;;;11.75;;
54193;SDS011;40102;50.906;6.972;2024-03-07T06:54:11;25.13;;;12.20;;
54193;SDS011;40102;50.906;6.972;2024-03-07T06:56:39;24.73;;;13.18;;
54193;SDS011;40102;50.906;6.972;2024-03-07T06:59:08;26.38;;;12.50;;
54193;SDS011;40102;50.906;6.972;2024-03-07T07:01:33;28.23;;;13.07;;
54193;SDS011;40102;50.906;6.972;2024-03-07T07:03:59;25.52;;;12.63;;
54193;SDS011;40102;50.906;6.972;2024-03-07T07:06:28;23.00;;;12.85;;
54193;SDS011;40102;50.906;6.972;2024-03-07T07:08:56;28.15;;;13.02;;
54193;SDS011;40102;50.906;6.972;2024-03-07T07:11:23;26.45;;;12.85;;
54193;SDS011;40102;50.906;6.972;2024-03-07T07:13:49;24.15;;;11.63;;
54193;SDS011;40102;50.906;6.972;2024-03-07T07:16:14;25.70;;;11.93;;
54193;SDS011;40102;50.906;6.972;2024-03-07T07:18:43;22.10;;;11.55;;
54193;SDS011;40102;50.906;6.972;2024-03-07T07:21:09;23.00;;;11.50;;
54193;SDS011;40102;50.906;6.972;2024-03-07T07:23:45;25.25;;;12.15;;
54193;SDS011;40102;50.906;6.972;2024-03-07T07:26:11;20.20;;;10.73;;
54193;SDS011;40102;50.906;6.972;2024-03-07T07:28:36;23.17;;;12.05;;
54193;SDS011;40102;50.906;6.972;2024-03-07T07:31:02;22.20;;;11.45;;
54193;SDS011;40102;50.906;6.972;2024-03-07T07:33:29;24.67;;;11.55;;
54193;SDS011;40102;50.906;6.972;2024-03-07T07:35:56;25.23;;;12.90;;
54193;SDS011;40102;50.906;6.972;2024-03-07T07:38:22;25.42;;;12.15;;
54193;SDS011;40102;50.906;6.972;2024-03-07T07:40:47;20.27;;;11.02;;
54193;SDS011;40102;50.906;6.972;2024-03-07T07:43:13;26.42;;;12.55;;
54193;SDS011;40102;50.906;6.972;2024-03-07T07:45:38;25.13;;;12.57;;
54193;SDS011;40102;50.906;6.972;2024-03-07T07:48:04;24.17;;;12.25;;
54193;SDS011;40102;50.906;6.972;2024-03-07T07:50:30;24.60;;;12.30;;
54193;SDS011;40102;50.906;6.972;2024-03-07T07:53:00;20.73;;;10.85;;
54193;SDS011;40102;50.906;6.972;2024-03-07T07:55:31;22.00;;;12.48;;
54193;SDS011;40102;50.906;6.972;2024-03-07T07:58:33;23.77;;;11.55;;
54193;SDS011;40102;50.906;6.972;2024-03-07T08:00:58;22.13;;;11.38;;
54193;SDS011;40102;50.906;6.972;2024-03-07T08:03:23;26.08;;;12.45;;
54193;SDS011;40102;50.906;6.972;2024-03-07T08:05:54;24.75;;;11.95;;
54193;SDS011;40102;50.906;6.972;2024-03-07T08:08:20;21.02;;;11.88;;
54193;SDS011;40102;50.906;6.972;2024-03-07T08:10:46;18.60;;;10.00;;
54193;SDS011;40102;50.906;6.972;2024-03-07T08:13:12;22.85;;;11.05;;
54193;SDS011;40102;50.906;6.972;2024-03-07T08:15:38;23.38;;;12.32;;
54193;SDS011;40102;50.906;6.972;2024-03-07T08:18:04;21.52;;;11.82;;
54193;SDS011;40102;50.906;6.972;2024-03-07T08:20:39;20.55;;;11.38;;
54193;SDS011;40102;50.906;6.972;2024-03-07T08:23:07;23.42;;;11.88;;
54193;SDS011;40102;50.906;6.972;2024-03-07T08:25:33;22.98;;;12.77;;
54193;SDS011;40102;50.906;6.972;2024-03-07T08:28:01;18.73;;;10.13;;
54193;SDS011;40102;50.906;6.972;2024-03-07T08:30:26;21.73;;;11.65;;
54193;SDS011;40102;50.906;6.972;2024-03-07T08:32:57;20.20;;;10.18;;
54193;SDS011;40102;50.906;6.972;2024-03-07T08:35:24;21.40;;;10.88;;
54193;SDS011;40102;50.906;6.972;2024-03-07T08:37:50;19.92;;;10.23;;
54193;SDS011;40102;50.906;6.972;2024-03-07T08:40:21;19.90;;;10.82;;
54193;SDS011;40102;50.906;6.972;2024-03-07T08:42:48;21.77;;;11.27;;
54193;SDS011;40102;50.906;6.972;2024-03-07T08:45:16;20.23;;;10.52;;
54193;SDS011;40102;50.906;6.972;2024-03-07T08:47:51;17.85;;;9.77;;
54193;SDS011;40102;50.906;6.972;2024-03-07T08:50:19;20.65;;;9.63;;
54193;SDS011;40102;50.906;6.972;2024-03-07T08:52:45;20.05;;;9.68;;
54193;SDS011;40102;50.906;6.972;2024-03-07T08:55:14;16.63;;;8.65;;
54193;SDS011;40102;50.906;6.972;2024-03-07T08:57:41;16.55;;;8.82;;
54193;SDS011;40102;50.906;6.972;2024-03-07T09:00:12;18.83;;;9.90;;
54193;SDS011;40102;50.906;6.972;2024-03-07T09:02:47;19.13;;;9.75;;
54193;SDS011;40102;50.906;6.972;2024-03-07T09:05:18;18.48;;;9.57;;
54193;SDS011;40102;50.906;6.972;2024-03-07T09:07:45;17.40;;;9.20;;
54193;SDS011;40102;50.906;6.972;2024-03-07T09:10:12;18.77;;;9.00;;
54193;SDS011;40102;50.906;6.972;2024-03-07T09:12:39;15.45;;;8.45;;
54193;SDS011;40102;50.906;6.972;2024-03-07T09:15:05;19.67;;;9.73;;
54193;SDS011;40102;50.906;6.972;2024-03-07T09:17:30;20.25;;;9.02;;
54193;SDS011;40102;50.906;6.972;2024-03-07T09:19:56;17.67;;;9.30;;
54193;SDS011;40102;50.906;6.972;2024-03-07T09:22:22;19.45;;;10.05;;
54193;SDS011;40102;50.906;6.972;2024-03-07T09:24:47;18.38;;;9.25;;
54193;SDS011;40102;50.906;6.972;2024-03-07T09:27:12;18.67;;;9.57;;
54193;SDS011;40102;50.906;6.972;2024-03-07T09:29:40;20.40;;;9.43;;
54193;SDS011;40102;50.906;6.972;2024-03-07T09:32:05;19.27;;;9.75;;
54193;SDS011;40102;50.906;6.972;2024-03-07T09:34:33;17.90;;;9.13;;
54193;SDS011;40102;50.906;6.972;2024-03-07T09:37:00;17.38;;;9.20;;
54193;SDS011;40102;50.906;6.972;2024-03-07T09:39:26;15.15;;;8.40;;
54193;SDS011;40102;50.906;6.972;2024-03-07T09:41:51;19.38;;;8.88;;
54193;SDS011;40102;50.906;6.972;2024-03-07T09:44:19;24.67;;;9.88;;
54193;SDS011;40102;50.906;6.972;2024-03-07T09:46:50;23.23;;;9.43;;
54193;SDS011;40102;50.906;6.972;2024-03-07T09:49:16;18.77;;;9.68;;
54193;SDS011;40102;50.906;6.972;2024-03-07T09:51:43;22.92;;;8.82;;
54193;SDS011;40102;50.906;6.972;2024-03-07T09:54:09;20.02;;;9.27;;
54193;SDS011;40102;50.906;6.972;2024-03-07T09:56:35;17.45;;;8.50;;
54193;SDS011;40102;50.906;6.972;2024-03-07T09:59:02;20.08;;;8.88;;
54193;SDS011;40102;50.906;6.972;2024-03-07T10:01:29;19.55;;;8.85;;
54193;SDS011;40102;50.906;6.972;2024-03-07T10:03:59;15.57;;;8.43;;
54193;SDS011;40102;50.906;6.972;2024-03-07T10:06:39;17.02;;;8.50;;
54193;SDS011;40102;50.906;6.972;2024-03-07T10:09:05;18.80;;;9.32;;
54193;SDS011;40102;50.906;6.972;2024-03-07T10:11:32;15.07;;;8.13;;
54193;SDS011;40102;50.906;6.972;2024-03-07T10:13:59;18.73;;;9.02;;
54193;SDS011;40102;50.906;6.972;2024-03-07T10:16:24;17.48;;;8.82;;
54193;SDS011;40102;50.906;6.972;2024-03-07T10:18:50;18.75;;;9.23;;
54193;SDS011;40102;50.906;6.972;2024-03-07T10:21:24;18.02;;;9.20;;
54193;SDS011;40102;50.906;6.972;2024-03-07T10:23:49;17.52;;;8.93;;
54193;SDS011;40102;50.906;6.972;2024-03-07T10:26:17;15.98;;;8.13;;
54193;SDS011;40102;50.906;6.972;2024-03-07T10:28:43;19.63;;;9.13;;
54193;SDS011;40102;50.906;6.972;2024-03-07T10:31:08;17.95;;;9.18;;
54193;SDS011;40102;50.906;6.972;2024-03-07T10:33:36;17.08;;;9.15;;
54193;SDS011;40102;50.906;6.972;2024-03-07T10:36:02;17.13;;;8.95;;
54193;SDS011;40102;50.906;6.972;2024-03-07T10:38:29;18.83;;;9.32;;
54193;SDS011;40102;50.906;6.972;2024-03-07T10:40:54;17.20;;;8.65;;
54193;SDS011;40102;50.906;6.972;2024-03-07T10:43:21;17.88;;;9.38;;
54193;SDS011;40102;50.906;6.972;2024-03-07T10:45:47;18.55;;;9.45;;
54193;SDS011;40102;50.906;6.972;2024-03-07T10:48:18;19.73;;;8.95;;
54193;SDS011;40102;50.906;6.972;2024-03-07T10:50:48;27.08;;;9.70;;
54193;SDS011;40102;50.906;6.972;2024-03-07T10:53:32;20.05;;;9.95;;
54193;SDS011;40102;50.906;6.972;2024-03-07T10:56:12;16.38;;;8.40;;
54193;SDS011;40102;50.906;6.972;2024-03-07T10:59:08;16.73;;;8.85;;
54193;SDS011;40102;50.906;6.972;2024-03-07T11:04:45;18.30;;;9.20;;
54193;SDS011;40102;50.906;6.972;2024-03-07T11:07:13;15.57;;;8.43;;
54193;SDS011;40102;50.906;6.972;2024-03-07T11:09:39;16.90;;;8.55;;
54193;SDS011;40102;50.906;6.972;2024-03-07T11:12:07;17.70;;;9.15;;
54193;SDS011;40102;50.906;6.972;2024-03-07T11:14:35;16.42;;;8.40;;
54193;SDS011;40102;50.906;6.972;2024-03-07T11:17:02;19.50;;;9.45;;
54193;SDS011;40102;50.906;6.972;2024-03-07T11:19:29;16.92;;;8.90;;
54193;SDS011;40102;50.906;6.972;2024-03-07T11:21:59;14.60;;;8.30;;
54193;SDS011;40102;50.906;6.972;2024-03-07T11:26:58;22.35;;;9.23;;
54193;SDS011;40102;50.906;6.972;2024-03-07T11:29:40;17.17;;;9.32;;
54193;SDS011;40102;50.906;6.972;2024-03-07T11:32:08;18.77;;;8.93;;
54193;SDS011;40102;50.906;6.972;2024-03-07T11:34:41;15.18;;;8.18;;
54193;SDS011;40102;50.906;6.972;2024-03-07T11:37:08;18.50;;;9.23;;
54193;SDS011;40102;50.906;6.972;2024-03-07T11:39:46;17.05;;;8.43;;
54193;SDS011;40102;50.906;6.972;2024-03-07T11:42:26;18.08;;;8.50;;
54193;SDS011;40102;50.906;6.972;2024-03-07T11:44:53;15.95;;;8.20;;
54193;SDS011;40102;50.906;6.972;2024-03-07T11:47:22;18.30;;;9.00;;
54193;SDS011;40102;50.906;6.972;2024-03-07T11:49:54;16.50;;;8.32;;
54193;SDS011;40102;50.906;6.972;2024-03-07T11:52:19;19.38;;;8.68;;
54193;SDS011;40102;50.906;6.972;2024-03-07T11:54:45;18.98;;;9.30;;
54193;SDS011;40102;50.906;6.972;2024-03-07T11:57:20;15.75;;;8.68;;
54193;SDS011;40102;50.906;6.972;2024-03-07T11:59:51;17.95;;;8.98;;
54193;SDS011;40102;50.906;6.972;2024-03-07T12:02:17;18.08;;;8.68;;
54193;SDS011;40102;50.906;6.972;2024-03-07T12:04:46;17.63;;;9.10;;
54193;SDS011;40102;50.906;6.972;2024-03-07T12:07:12;14.60;;;7.68;;
54193;SDS011;40102;50.906;6.972;2024-03-07T12:09:40;18.92;;;8.30;;
54193;SDS011;40102;50.906;6.972;2024-03-07T12:12:10;15.80;;;8.48;;
54193;SDS011;40102;50.906;6.972;2024-03-07T12:14:37;14.57;;;8.05;;
54193;SDS011;40102;50.906;6.972;2024-03-07T12:17:03;16.63;;;7.72;;
54193;SDS011;40102;50.906;6.972;2024-03-07T12:19:32;14.73;;;7.95;;
54193;SDS011;40102;50.906;6.972;2024-03-07T12:22:01;14.05;;;7.65;;
54193;SDS011;40102;50.906;6.972;2024-03-07T12:24:28;13.68;;;7.18;;
54193;SDS011;40102;50.906;6.972;2024-03-07T12:27:15;16.42;;;7.35;;
54193;SDS011;40102;50.906;6.972;2024-03-07T12:29:41;16.27;;;7.25;;
54193;SDS011;40102;50.906;6.972;2024-03-07T12:32:13;12.30;;;6.85;;
54193;SDS011;40102;50.906;6.972;2024-03-07T12:34:48;12.80;;;6.75;;
54193;SDS011;40102;50.906;6.972;2024-03-07T12:37:13;15.90;;;8.35;;
54193;SDS011;40102;50.906;6.972;2024-03-07T12:39:41;12.80;;;7.05;;
54193;SDS011;40102;50.906;6.972;2024-03-07T12:42:17;13.05;;;6.78;;
54193;SDS011;40102;50.906;6.972;2024-03-07T12:47:13;11.35;;;5.93;;
54193;SDS011;40102;50.906;6.972;2024-03-07T12:49:41;11.38;;;6.35;;
54193;SDS011;40102;50.906;6.972;2024-03-07T12:52:07;10.35;;;6.07;;
54193;SDS011;40102;50.906;6.972;2024-03-07T12:54:34;10.15;;;5.70;;
54193;SDS011;40102;50.906;6.972;2024-03-07T12:57:02;10.30;;;5.88;;
54193;SDS011;40102;50.906;6.972;2024-03-07T12:59:30;10.30;;;5.70;;
54193;SDS011;40102;50.906;6.972;2024-03-07T13:01:55;12.10;;;5.78;;
54193;SDS011;40102;50.906;6.972;2024-03-07T13:04:22;10.75;;;5.40;;
54193;SDS011;40102;50.906;6.972;2024-03-07T13:06:47;12.95;;;5.70;;
54193;SDS011;40102;50.906;6.972;2024-03-07T13:09:13;9.82;;;5.22;;
54193;SDS011;40102;50.906;6.972;2024-03-07T13:11:38;10.15;;;5.80;;
54193;SDS011;40102;50.906;6.972;2024-03-07T13:14:07;11.23;;;6.45;;
54193;SDS011;40102;50.906;6.972;2024-03-07T13:16:33;10.85;;;6.03;;
54193;SDS011;40102;50.906;6.972;2024-03-07T13:18:59;12.60;;;6.18;;
54193;SDS011;40102;50.906;6.972;2024-03-07T13:21:24;12.15;;;6.72;;
54193;SDS011;40102;50.906;6.972;2024-03-07T13:23:52;9.30;;;5.47;;
54193;SDS011;40102;50.906;6.972;2024-03-07T13:26:20;11.30;;;5.70;;
54193;SDS011;40102;50.906;6.972;2024-03-07T13:28:50;11.38;;;6.07;;
54193;SDS011;40102;50.906;6.972;2024-03-07T13:31:16;12.25;;;6.45;;
54193;SDS011;40102;50.906;6.972;2024-03-07T13:33:42;14.35;;;6.78;;
54193;SDS011;40102;50.906;6.972;2024-03-07T13:36:08;12.52;;;6.45;;
54193;SDS011;40102;50.906;6.972;2024-03-07T13:38:33;11.80;;;6.78;;
54193;SDS011;40102;50.906;6.972;2024-03-07T13:40:59;13.27;;;7.13;;
54193;SDS011;40102;50.906;6.972;2024-03-07T13:43:28;10.82;;;6.30;;
54193;SDS011;40102;50.906;6.972;2024-03-07T13:45:54;14.27;;;6.30;;
54193;SDS011;40102;50.906;6.972;2024-03-07T13:48:20;13.38;;;6.18;;
54193;SDS011;40102;50.906;6.972;2024-03-07T13:50:46;11.50;;;6.25;;
54193;SDS011;40102;50.906;6.972;2024-03-07T13:53:15;11.18;;;6.30;;
54193;SDS011;40102;50.906;6.972;2024-03-07T14:12:20;13.48;;;6.38;;
54193;SDS011;40102;50.906;6.972;2024-03-07T14:21:19;10.02;;;5.53;;
54193;SDS011;40102;50.906;6.972;2024-03-07T14:29:43;10.82;;;6.43;;
54193;SDS011;40102;50.906;6.972;2024-03-07T14:32:12;12.48;;;6.40;;
54193;SDS011;40102;50.906;6.972;2024-03-07T14:37:11;12.47;;;6.30;;
54193;SDS011;40102;50.906;6.972;2024-03-07T14:39:48;13.25;;;6.60;;
54193;SDS011;40102;50.906;6.972;2024-03-07T14:42:15;10.52;;;5.93;;
54193;SDS011;40102;50.906;6.972;2024-03-07T14:44:44;9.15;;;5.45;;
54193;SDS011;40102;50.906;6.972;2024-03-07T14:47:13;12.90;;;6.15;;
54193;SDS011;40102;50.906;6.972;2024-03-07T14:49:40;10.63;;;6.32;;
54193;SDS011;40102;50.906;6.972;2024-03-07T14:52:07;10.82;;;6.28;;
54193;SDS011;40102;50.906;6.972;2024-03-07T14:54:38;10.50;;;5.97;;
54193;SDS011;40102;50.906;6.972;2024-03-07T14:57:04;10.18;;;5.68;;
54193;SDS011;40102;50.906;6.972;2024-03-07T14:59:30;10.95;;;5.72;;
54193;SDS011;40102;50.906;6.972;2024-03-07T15:01:56;11.25;;;5.85;;
54193;SDS011;40102;50.906;6.972;2024-03-07T15:04:23;9.20;;;5.30;;
54193;SDS011;40102;50.906;6.972;2024-03-07T15:06:51;10.95;;;5.75;;